sensor_id;sensor_type;location;lat;lon;timestamp;P1;durP1;ratioP1;P2;durP2;ratioP2
33505;SDS011;19843;51.040;13.782;2023-01-09T00:03:48;1999.90;;;999.90;;
33505;SDS011;19843;51.040;13.782;2023-01-09T00:06:16;1999.90;;;999.90;;
33505;SDS011;19843;51.040;13.782;2023-01-09T00:08:43;1999.90;;;999.90;;
33505;SDS011;19843;51.040;13.782;2023-01-09T00:11:11;1999.90;;;999.90;;
33505;SDS011;19843;51.040;13.782;2023-01-09T00:13:38;1999.90;;;999.90;;
33505;SDS011;19843;51.040;13.782;2023-01-09T00:16:06;1999.90;;;999.90;;
33505;SDS011;19843;51.040;13.782;2023-01-09T00:18:36;1999.90;;;999.90;;
33505;SDS011;19843;51.040;13.782;2023-01-09T00:21:04;1999.90;;;999.90;;
33505;SDS011;19843;51.040;13.782;2023-01-09T00:23:33;1999.90;;;999.90;;
33505;SDS011;19843;51.040;13.782;2023-01-09T00:26:01;1999.90;;;999.90;;
33505;SDS011;19843;51.040;13.782;2023-01-09T00:28:30;1999.90;;;999.90;;
33505;SDS011;19843;51.040;13.782;2023-01-09T00:33:27;1999.90;;;999.90;;
33505;SDS011;19843;51.040;13.782;2023-01-09T00:35:57;1999.90;;;999.90;;
33505;SDS011;19843;51.040;13.782;2023-01-09T00:38:24;1999.90;;;999.90;;
33505;SDS011;19843;51.040;13.782;2023-01-09T00:40:52;1999.90;;;999.90;;
33505;SDS011;19843;51.040;13.782;2023-01-09T00:43:21;1999.90;;;999.90;;
33505;SDS011;19843;51.040;13.782;2023-01-09T00:45:52;1999.90;;;999.90;;
33505;SDS011;19843;51.040;13.782;2023-01-09T00:48:20;1999.90;;;999.90;;
33505;SDS011;19843;51.040;13.782;2023-01-09T00:50:52;1999.90;;;999.90;;
33505;SDS011;19843;51.040;13.782;2023-01-09T00:53:26;1999.90;;;999.90;;
33505;SDS011;19843;51.040;13.782;2023-01-09T00:55:58;1999.90;;;999.90;;
33505;SDS011;19843;51.040;13.782;2023-01-09T00:58:30;1999.90;;;999.90;;
33505;SDS011;19843;51.040;13.782;2023-01-09T01:00:58;1999.90;;;999.90;;
33505;SDS011;19843;51.040;13.782;2023-01-09T01:03:27;1999.90;;;999.90;;
33505;SDS011;19843;51.040;13.782;2023-01-09T01:05:54;1999.90;;;999.90;;
33505;SDS011;19843;51.040;13.782;2023-01-09T01:08:41;1999.90;;;999.90;;
33505;SDS011;19843;51.040;13.782;2023-01-09T01:11:08;1999.90;;;999.90;;
33505;SDS011;19843;51.040;13.782;2023-01-09T01:13:37;1999.90;;;999.90;;
33505;SDS011;19843;51.040;13.782;2023-01-09T01:16:07;1999.90;;;999.90;;
33505;SDS011;19843;51.040;13.782;2023-01-09T01:18:36;1999.90;;;999.90;;
33505;SDS011;19843;51.040;13.782;2023-01-09T01:21:04;1999.90;;;999.90;;
33505;SDS011;19843;51.040;13.782;2023-01-09T01:23:33;1999.90;;;999.90;;
33505;SDS011;19843;51.040;13.782;2023-01-09T01:26:04;1999.90;;;999.90;;
33505;SDS011;19843;51.040;13.782;2023-01-09T01:28:32;1999.90;;;999.90;;
33505;SDS011;19843;51.040;13.782;2023-01-09T01:31:00;1999.90;;;999.90;;
33505;SDS011;19843;51.040;13.782;2023-01-09T01:33:27;1999.90;;;999.90;;
33505;SDS011;19843;51.040;13.782;2023-01-09T01:35:59;1999.90;;;999.90;;
33505;SDS011;19843;51.040;13.782;2023-01-09T01:38:28;1999.90;;;999.90;;
33505;SDS011;19843;51.040;13.782;2023-01-09T01:40:56;1999.90;;;999.90;;
33505;SDS011;19843;51.040;13.782;2023-01-09T01:43:24;1999.90;;;999.90;;
33505;SDS011;19843;51.040;13.782;2023-01-09T01:45:52;1999.90;;;999.90;;
33505;SDS011;19843;51.040;13.782;2023-01-09T01:48:20;1999.90;;;999.90;;
33505;SDS011;19843;51.040;13.782;2023-01-09T01:50:52;1999.90;;;999.90;;
33505;SDS011;19843;51.040;13.782;2023-01-09T01:53:24;1999.90;;;999.90;;
33505;SDS011;19843;51.040;13.782;2023-01-09T01:56:01;1999.90;;;999.90;;
33505;SDS011;19843;51.040;13.782;2023-01-09T01:58:34;1999.90;;;999.90;;
33505;SDS011;19843;51.040;13.782;2023-01-09T02:01:04;1999.90;;;999.90;;
33505;SDS011;19843;51.040;13.782;2023-01-09T02:03:32;1999.90;;;999.90;;
33505;SDS011;19843;51.040;13.782;2023-01-09T02:06:01;1999.90;;;999.90;;
33505;SDS011;19843;51.040;13.782;2023-01-09T02:08:30;1999.90;;;999.90;;
33505;SDS011;19843;51.040;13.782;2023-01-09T02:10:57;1999.90;;;999.90;;
33505;SDS011;19843;51.040;13.782;2023-01-09T02:13:25;1999.90;;;999.90;;
33505;SDS011;19843;51.040;13.782;2023-01-09T02:16:00;1999.90;;;999.90;;
33505;SDS011;19843;51.040;13.782;2023-01-09T02:18:45;1999.90;;;999.90;;
33505;SDS011;19843;51.040;13.782;2023-01-09T02:21:21;1999.90;;;999.90;;
33505;SDS011;19843;51.040;13.782;2023-01-09T02:24:05;1999.90;;;999.90;;
33505;SDS011;19843;51.040;13.782;2023-01-09T02:26:47;1999.90;;;999.90;;
33505;SDS011;19843;51.040;13.782;2023-01-09T02:29:28;1999.90;;;999.90;;
33505;SDS011;19843;51.040;13.782;2023-01-09T02:32:17;1999.90;;;999.90;;
33505;SDS011;19843;51.040;13.782;2023-01-09T02:34:55;1999.90;;;999.90;;
33505;SDS011;19843;51.040;13.782;2023-01-09T02:37:34;1999.90;;;999.90;;
33505;SDS011;19843;51.040;13.782;2023-01-09T02:40:08;1999.90;;;999.90;;
33505;SDS011;19843;51.040;13.782;2023-01-09T02:42:43;1999.90;;;999.90;;
33505;SDS011;19843;51.040;13.782;2023-01-09T02:45:13;1999.90;;;999.90;;
33505;SDS011;19843;51.040;13.782;2023-01-09T02:47:43;1999.90;;;999.90;;
33505;SDS011;19843;51.040;13.782;2023-01-09T02:50:13;1999.90;;;999.90;;
33505;SDS011;19843;51.040;13.782;2023-01-09T02:55:53;1999.90;;;999.90;;
33505;SDS011;19843;51.040;13.782;2023-01-09T02:58:32;1999.90;;;999.90;;
33505;SDS011;19843;51.040;13.782;2023-01-09T03:01:18;1999.90;;;999.90;;
33505;SDS011;19843;51.040;13.782;2023-01-09T03:03:58;1999.90;;;999.90;;
33505;SDS011;19843;51.040;13.782;2023-01-09T03:06:31;1999.90;;;999.90;;
33505;SDS011;19843;51.040;13.782;2023-01-09T03:09:07;1999.90;;;999.90;;
33505;SDS011;19843;51.040;13.782;2023-01-09T03:11:41;1999.90;;;999.90;;
33505;SDS011;19843;51.040;13.782;2023-01-09T03:14:14;1999.90;;;999.90;;
33505;SDS011;19843;51.040;13.782;2023-01-09T03:16:44;1999.90;;;999.90;;
33505;SDS011;19843;51.040;13.782;2023-01-09T03:19:16;1999.90;;;999.90;;
33505;SDS011;19843;51.040;13.782;2023-01-09T03:21:45;1999.90;;;999.90;;
33505;SDS011;19843;51.040;13.782;2023-01-09T03:24:13;1999.90;;;999.90;;
33505;SDS011;19843;51.040;13.782;2023-01-09T03:26:41;1999.90;;;999.90;;
33505;SDS011;19843;51.040;13.782;2023-01-09T03:29:33;1999.90;;;999.90;;
33505;SDS011;19843;51.040;13.782;2023-01-09T03:32:02;1999.90;;;999.90;;
33505;SDS011;19843;51.040;13.782;2023-01-09T03:34:31;1999.90;;;999.90;;
33505;SDS011;19843;51.040;13.782;2023-01-09T03:36:58;1999.90;;;999.90;;
33505;SDS011;19843;51.040;13.782;2023-01-09T03:41:54;1999.90;;;999.90;;
33505;SDS011;19843;51.040;13.782;2023-01-09T03:44:21;1999.90;;;999.90;;
33505;SDS011;19843;51.040;13.782;2023-01-09T03:46:48;1999.90;;;999.90;;
33505;SDS011;19843;51.040;13.782;2023-01-09T03:49:16;1999.90;;;999.90;;
33505;SDS011;19843;51.040;13.782;2023-01-09T03:51:45;1999.90;;;999.90;;
33505;SDS011;19843;51.040;13.782;2023-01-09T03:54:12;1999.90;;;999.90;;
33505;SDS011;19843;51.040;13.782;2023-01-09T03:56:40;1999.90;;;999.90;;
33505;SDS011;19843;51.040;13.782;2023-01-09T03:59:07;1999.90;;;999.90;;
33505;SDS011;19843;51.040;13.782;2023-01-09T04:01:34;1999.90;;;999.90;;
33505;SDS011;19843;51.040;13.782;2023-01-09T04:04:02;1999.90;;;999.90;;
33505;SDS011;19843;51.040;13.782;2023-01-09T04:06:30;1999.90;;;999.90;;
33505;SDS011;19843;51.040;13.782;2023-01-09T04:08:58;1999.90;;;999.90;;
33505;SDS011;19843;51.040;13.782;2023-01-09T04:11:26;1999.90;;;999.90;;
33505;SDS011;19843;51.040;13.782;2023-01-09T04:13:53;1999.90;;;999.90;;
33505;SDS011;19843;51.040;13.782;2023-01-09T04:16:20;1999.90;;;999.90;;
33505;SDS011;19843;51.040;13.782;2023-01-09T04:18:48;1999.90;;;999.90;;
33505;SDS011;19843;51.040;13.782;2023-01-09T04:21:15;1999.90;;;999.90;;
33505;SDS011;19843;51.040;13.782;2023-01-09T04:23:43;1999.90;;;999.90;;
33505;SDS011;19843;51.040;13.782;2023-01-09T04:26:12;1999.90;;;999.90;;
33505;SDS011;19843;51.040;13.782;2023-01-09T04:28:39;1999.90;;;999.90;;
33505;SDS011;19843;51.040;13.782;2023-01-09T04:31:06;1999.90;;;999.90;;
33505;SDS011;19843;51.040;13.782;2023-01-09T04:33:34;1999.90;;;999.90;;
33505;SDS011;19843;51.040;13.782;2023-01-09T04:36:01;1999.90;;;999.90;;
33505;SDS011;19843;51.040;13.782;2023-01-09T04:38:29;1999.90;;;999.90;;
33505;SDS011;19843;51.040;13.782;2023-01-09T04:40:56;1999.90;;;999.90;;
33505;SDS011;19843;51.040;13.782;2023-01-09T04:43:25;1999.90;;;999.90;;
33505;SDS011;19843;51.040;13.782;2023-01-09T04:45:53;1999.90;;;999.90;;
33505;SDS011;19843;51.040;13.782;2023-01-09T04:48:20;1999.90;;;999.90;;
33505;SDS011;19843;51.040;13.782;2023-01-09T04:50:48;1999.90;;;999.90;;
33505;SDS011;19843;51.040;13.782;2023-01-09T04:53:15;1999.90;;;999.90;;
33505;SDS011;19843;51.040;13.782;2023-01-09T04:55:42;1999.90;;;999.90;;
33505;SDS011;19843;51.040;13.782;2023-01-09T04:58:10;1999.90;;;999.90;;
33505;SDS011;19843;51.040;13.782;2023-01-09T05:00:38;1999.90;;;999.90;;
33505;SDS011;19843;51.040;13.782;2023-01-09T05:03:06;1999.90;;;999.90;;
33505;SDS011;19843;51.040;13.782;2023-01-09T05:05:33;1999.90;;;999.90;;
33505;SDS011;19843;51.040;13.782;2023-01-09T05:08:00;1999.90;;;999.90;;
33505;SDS011;19843;51.040;13.782;2023-01-09T05:10:28;1999.90;;;999.90;;
33505;SDS011;19843;51.040;13.782;2023-01-09T05:12:55;1999.90;;;999.90;;
33505;SDS011;19843;51.040;13.782;2023-01-09T05:15:23;1999.90;;;999.90;;
33505;SDS011;19843;51.040;13.782;2023-01-09T05:17:54;1999.90;;;999.90;;
33505;SDS011;19843;51.040;13.782;2023-01-09T05:20:21;1999.90;;;999.90;;
33505;SDS011;19843;51.040;13.782;2023-01-09T05:22:49;1999.90;;;999.90;;
33505;SDS011;19843;51.040;13.782;2023-01-09T05:25:16;1999.90;;;999.90;;
33505;SDS011;19843;51.040;13.782;2023-01-09T05:27:44;1999.90;;;999.90;;
33505;SDS011;19843;51.040;13.782;2023-01-09T05:32:43;1999.90;;;999.90;;
33505;SDS011;19843;51.040;13.782;2023-01-09T05:35:12;1999.90;;;999.90;;
33505;SDS011;19843;51.040;13.782;2023-01-09T05:37:39;1999.90;;;999.90;;
33505;SDS011;19843;51.040;13.782;2023-01-09T05:40:08;1999.90;;;999.90;;
33505;SDS011;19843;51.040;13.782;2023-01-09T05:42:36;1999.90;;;999.90;;
33505;SDS011;19843;51.040;13.782;2023-01-09T05:45:04;1999.90;;;999.90;;
33505;SDS011;19843;51.040;13.782;2023-01-09T05:47:32;1999.90;;;999.90;;
33505;SDS011;19843;51.040;13.782;2023-01-09T05:49:59;1999.90;;;999.90;;
33505;SDS011;19843;51.040;13.782;2023-01-09T05:52:28;1999.90;;;999.90;;
33505;SDS011;19843;51.040;13.782;2023-01-09T05:54:56;1999.90;;;999.90;;
33505;SDS011;19843;51.040;13.782;2023-01-09T05:57:23;1999.90;;;999.90;;
33505;SDS011;19843;51.040;13.782;2023-01-09T05:59:50;1999.90;;;999.90;;
33505;SDS011;19843;51.040;13.782;2023-01-09T06:02:18;1999.90;;;999.90;;
33505;SDS011;19843;51.040;13.782;2023-01-09T06:04:45;1999.90;;;999.90;;
33505;SDS011;19843;51.040;13.782;2023-01-09T06:07:13;1999.90;;;999.90;;
33505;SDS011;19843;51.040;13.782;2023-01-09T06:09:48;1999.90;;;999.90;;
33505;SDS011;19843;51.040;13.782;2023-01-09T06:12:15;1999.90;;;999.90;;
33505;SDS011;19843;51.040;13.782;2023-01-09T06:14:42;1999.90;;;999.90;;
33505;SDS011;19843;51.040;13.782;2023-01-09T06:17:10;1999.90;;;999.90;;
33505;SDS011;19843;51.040;13.782;2023-01-09T06:19:37;1999.90;;;999.90;;
33505;SDS011;19843;51.040;13.782;2023-01-09T06:22:04;1999.90;;;999.90;;
33505;SDS011;19843;51.040;13.782;2023-01-09T06:24:32;1999.90;;;999.90;;
33505;SDS011;19843;51.040;13.782;2023-01-09T06:27:01;1999.90;;;999.90;;
33505;SDS011;19843;51.040;13.782;2023-01-09T06:29:28;1999.90;;;999.90;;
33505;SDS011;19843;51.040;13.782;2023-01-09T06:31:55;1999.90;;;999.90;;
33505;SDS011;19843;51.040;13.782;2023-01-09T06:34:23;1999.90;;;999.90;;
33505;SDS011;19843;51.040;13.782;2023-01-09T06:36:51;1999.90;;;999.90;;
33505;SDS011;19843;51.040;13.782;2023-01-09T06:39:18;1999.90;;;999.90;;
33505;SDS011;19843;51.040;13.782;2023-01-09T06:41:46;1999.90;;;999.90;;
33505;SDS011;19843;51.040;13.782;2023-01-09T06:44:15;1999.90;;;999.90;;
33505;SDS011;19843;51.040;13.782;2023-01-09T06:46:42;1999.90;;;999.90;;
33505;SDS011;19843;51.040;13.782;2023-01-09T06:49:10;1999.90;;;999.90;;
33505;SDS011;19843;51.040;13.782;2023-01-09T06:51:37;1999.90;;;999.90;;
33505;SDS011;19843;51.040;13.782;2023-01-09T06:54:04;1999.90;;;999.90;;
33505;SDS011;19843;51.040;13.782;2023-01-09T06:56:32;1999.90;;;999.90;;
33505;SDS011;19843;51.040;13.782;2023-01-09T06:58:59;1999.90;;;999.90;;
33505;SDS011;19843;51.040;13.782;2023-01-09T07:01:28;1999.90;;;999.90;;
33505;SDS011;19843;51.040;13.782;2023-01-09T07:03:56;1999.90;;;999.90;;
33505;SDS011;19843;51.040;13.782;2023-01-09T07:06:23;1999.90;;;999.90;;
33505;SDS011;19843;51.040;13.782;2023-01-09T07:08:51;1999.90;;;999.90;;
33505;SDS011;19843;51.040;13.782;2023-01-09T07:11:19;1999.90;;;999.90;;
33505;SDS011;19843;51.040;13.782;2023-01-09T07:13:46;1999.90;;;999.90;;
33505;SDS011;19843;51.040;13.782;2023-01-09T07:16:14;1999.90;;;999.90;;
33505;SDS011;19843;51.040;13.782;2023-01-09T07:18:42;1999.90;;;999.90;;
33505;SDS011;19843;51.040;13.782;2023-01-09T07:21:10;1999.90;;;999.90;;
33505;SDS011;19843;51.040;13.782;2023-01-09T07:23:37;1999.90;;;999.90;;
33505;SDS011;19843;51.040;13.782;2023-01-09T07:26:05;1999.90;;;999.90;;
33505;SDS011;19843;51.040;13.782;2023-01-09T07:28:32;1999.90;;;999.90;;
33505;SDS011;19843;51.040;13.782;2023-01-09T07:31:00;1999.90;;;999.90;;
33505;SDS011;19843;51.040;13.782;2023-01-09T07:33:29;1999.90;;;999.90;;
33505;SDS011;19843;51.040;13.782;2023-01-09T07:35:58;1999.90;;;999.90;;
33505;SDS011;19843;51.040;13.782;2023-01-09T07:38:26;1999.90;;;999.90;;
33505;SDS011;19843;51.040;13.782;2023-01-09T07:40:53;1999.90;;;999.90;;
33505;SDS011;19843;51.040;13.782;2023-01-09T07:43:21;1999.90;;;999.90;;
33505;SDS011;19843;51.040;13.782;2023-01-09T07:45:48;1999.90;;;999.90;;
33505;SDS011;19843;51.040;13.782;2023-01-09T07:48:15;1999.90;;;999.90;;
33505;SDS011;19843;51.040;13.782;2023-01-09T07:50:43;1999.90;;;999.90;;
33505;SDS011;19843;51.040;13.782;2023-01-09T07:53:12;1999.90;;;999.90;;
33505;SDS011;19843;51.040;13.782;2023-01-09T07:55:40;1999.90;;;999.90;;
33505;SDS011;19843;51.040;13.782;2023-01-09T07:58:08;1999.90;;;999.90;;
33505;SDS011;19843;51.040;13.782;2023-01-09T08:00:35;1999.90;;;999.90;;
33505;SDS011;19843;51.040;13.782;2023-01-09T08:03:03;1999.90;;;999.90;;
33505;SDS011;19843;51.040;13.782;2023-01-09T08:07:59;1999.90;;;999.90;;
33505;SDS011;19843;51.040;13.782;2023-01-09T08:10:28;1999.90;;;999.90;;
33505;SDS011;19843;51.040;13.782;2023-01-09T08:12:55;1999.90;;;999.90;;
33505;SDS011;19843;51.040;13.782;2023-01-09T08:15:23;1999.90;;;999.90;;
33505;SDS011;19843;51.040;13.782;2023-01-09T08:17:50;1999.90;;;999.90;;
33505;SDS011;19843;51.040;13.782;2023-01-09T08:20:18;1999.90;;;999.90;;
33505;SDS011;19843;51.040;13.782;2023-01-09T08:22:45;1999.90;;;999.90;;
33505;SDS011;19843;51.040;13.782;2023-01-09T08:25:15;1999.90;;;999.90;;
33505;SDS011;19843;51.040;13.782;2023-01-09T08:30:13;1999.90;;;999.90;;
33505;SDS011;19843;51.040;13.782;2023-01-09T08:35:08;1999.90;;;999.90;;
33505;SDS011;19843;51.040;13.782;2023-01-09T08:37:59;1999.90;;;999.90;;
33505;SDS011;19843;51.040;13.782;2023-01-09T08:40:27;1999.90;;;999.90;;
33505;SDS011;19843;51.040;13.782;2023-01-09T08:42:59;1999.90;;;999.90;;
33505;SDS011;19843;51.040;13.782;2023-01-09T08:45:45;1999.90;;;999.90;;
33505;SDS011;19843;51.040;13.782;2023-01-09T08:48:30;1999.90;;;999.90;;
33505;SDS011;19843;51.040;13.782;2023-01-09T08:50:58;1999.90;;;999.90;;
33505;SDS011;19843;51.040;13.782;2023-01-09T08:53:25;1999.90;;;999.90;;
33505;SDS011;19843;51.040;13.782;2023-01-09T08:55:53;1999.90;;;999.90;;
33505;SDS011;19843;51.040;13.782;2023-01-09T08:58:22;1999.90;;;999.90;;
33505;SDS011;19843;51.040;13.782;2023-01-09T09:00:50;1999.90;;;999.90;;
33505;SDS011;19843;51.040;13.782;2023-01-09T09:03:17;1999.90;;;999.90;;
33505;SDS011;19843;51.040;13.782;2023-01-09T09:05:46;1999.90;;;999.90;;
33505;SDS011;19843;51.040;13.782;2023-01-09T09:08:14;1999.90;;;999.90;;
33505;SDS011;19843;51.040;13.782;2023-01-09T09:10:41;1999.90;;;999.90;;
33505;SDS011;19843;51.040;13.782;2023-01-09T09:13:09;1999.90;;;999.90;;
33505;SDS011;19843;51.040;13.782;2023-01-09T09:15:38;79.70;;;74.68;;
33505;SDS011;19843;51.040;13.782;2023-01-09T09:18:05;72.97;;;68.32;;
33505;SDS011;19843;51.040;13.782;2023-01-09T09:20:34;85.05;;;80.07;;
33505;SDS011;19843;51.040;13.782;2023-01-09T09:23:04;1999.90;;;999.90;;
33505;SDS011;19843;51.040;13.782;2023-01-09T09:25:33;1999.90;;;999.90;;
33505;SDS011;19843;51.040;13.782;2023-01-09T09:28:03;1999.90;;;999.90;;
33505;SDS011;19843;51.040;13.782;2023-01-09T09:30:31;1999.90;;;999.90;;
33505;SDS011;19843;51.040;13.782;2023-01-09T09:33:00;1999.90;;;999.90;;
33505;SDS011;19843;51.040;13.782;2023-01-09T09:35:28;1999.90;;;999.90;;
33505;SDS011;19843;51.040;13.782;2023-01-09T09:37:57;1999.90;;;999.90;;
33505;SDS011;19843;51.040;13.782;2023-01-09T09:40:33;1999.90;;;999.90;;
33505;SDS011;19843;51.040;13.782;2023-01-09T09:43:23;1999.90;;;999.90;;
33505;SDS011;19843;51.040;13.782;2023-01-09T09:48:56;1999.90;;;999.90;;
33505;SDS011;19843;51.040;13.782;2023-01-09T09:51:34;1999.90;;;999.90;;
33505;SDS011;19843;51.040;13.782;2023-01-09T09:54:11;1999.90;;;999.90;;
33505;SDS011;19843;51.040;13.782;2023-01-09T09:56:42;1999.90;;;999.90;;
33505;SDS011;19843;51.040;13.782;2023-01-09T09:59:16;1999.90;;;999.90;;
33505;SDS011;19843;51.040;13.782;2023-01-09T10:01:49;1999.90;;;999.90;;
33505;SDS011;19843;51.040;13.782;2023-01-09T10:04:23;1999.90;;;999.90;;
33505;SDS011;19843;51.040;13.782;2023-01-09T10:06:53;1999.90;;;999.90;;
33505;SDS011;19843;51.040;13.782;2023-01-09T10:09:28;1516.50;;;765.63;;
33505;SDS011;19843;51.040;13.782;2023-01-09T10:12:09;66.43;;;63.03;;
33505;SDS011;19843;51.040;13.782;2023-01-09T10:14:53;63.50;;;60.25;;
33505;SDS011;19843;51.040;13.782;2023-01-09T10:20:30;71.45;;;67.82;;
33505;SDS011;19843;51.040;13.782;2023-01-09T10:23:10;71.18;;;67.60;;
33505;SDS011;19843;51.040;13.782;2023-01-09T10:25:51;1999.90;;;999.90;;
33505;SDS011;19843;51.040;13.782;2023-01-09T10:28:30;69.82;;;66.20;;
33505;SDS011;19843;51.040;13.782;2023-01-09T10:31:15;1515.05;;;764.28;;
33505;SDS011;19843;51.040;13.782;2023-01-09T10:33:56;1999.90;;;999.90;;
33505;SDS011;19843;51.040;13.782;2023-01-09T10:36:40;1999.90;;;999.90;;
33505;SDS011;19843;51.040;13.782;2023-01-09T10:39:27;1999.90;;;999.90;;
33505;SDS011;19843;51.040;13.782;2023-01-09T10:42:00;1999.90;;;999.90;;
33505;SDS011;19843;51.040;13.782;2023-01-09T10:44:37;1999.90;;;999.90;;
33505;SDS011;19843;51.040;13.782;2023-01-09T10:47:14;1999.90;;;999.90;;
33505;SDS011;19843;51.040;13.782;2023-01-09T10:49:43;1999.90;;;999.90;;
33505;SDS011;19843;51.040;13.782;2023-01-09T10:52:15;1999.90;;;999.90;;
33505;SDS011;19843;51.040;13.782;2023-01-09T10:54:48;1999.90;;;999.90;;
33505;SDS011;19843;51.040;13.782;2023-01-09T10:57:36;1999.90;;;999.90;;
33505;SDS011;19843;51.040;13.782;2023-01-09T11:00:12;1999.90;;;999.90;;
33505;SDS011;19843;51.040;13.782;2023-01-09T11:02:42;1999.90;;;999.90;;
33505;SDS011;19843;51.040;13.782;2023-01-09T11:05:11;1999.90;;;999.90;;
33505;SDS011;19843;51.040;13.782;2023-01-09T11:07:43;1999.90;;;999.90;;
33505;SDS011;19843;51.040;13.782;2023-01-09T11:10:12;1999.90;;;999.90;;
33505;SDS011;19843;51.040;13.782;2023-01-09T11:12:41;1999.90;;;999.90;;
33505;SDS011;19843;51.040;13.782;2023-01-09T11:15:21;1999.90;;;999.90;;
33505;SDS011;19843;51.040;13.782;2023-01-09T11:17:56;1999.90;;;999.90;;
33505;SDS011;19843;51.040;13.782;2023-01-09T11:20:43;1999.90;;;999.90;;
33505;SDS011;19843;51.040;13.782;2023-01-09T11:23:25;1999.90;;;999.90;;
33505;SDS011;19843;51.040;13.782;2023-01-09T11:25:58;1999.90;;;999.90;;
33505;SDS011;19843;51.040;13.782;2023-01-09T11:28:28;1999.90;;;999.90;;
33505;SDS011;19843;51.040;13.782;2023-01-09T11:30:56;1999.90;;;999.90;;
33505;SDS011;19843;51.040;13.782;2023-01-09T11:33:28;1999.90;;;999.90;;
33505;SDS011;19843;51.040;13.782;2023-01-09T11:36:01;1999.90;;;999.90;;
33505;SDS011;19843;51.040;13.782;2023-01-09T11:38:45;1999.90;;;999.90;;
33505;SDS011;19843;51.040;13.782;2023-01-09T11:41:16;1999.90;;;999.90;;
33505;SDS011;19843;51.040;13.782;2023-01-09T11:43:45;1999.90;;;999.90;;
33505;SDS011;19843;51.040;13.782;2023-01-09T11:46:28;60.97;;;57.92;;
33505;SDS011;19843;51.040;13.782;2023-01-09T11:49:01;64.60;;;61.30;;
33505;SDS011;19843;51.040;13.782;2023-01-09T11:51:30;66.03;;;62.78;;
33505;SDS011;19843;51.040;13.782;2023-01-09T11:54:06;74.78;;;71.05;;
33505;SDS011;19843;51.040;13.782;2023-01-09T11:56:42;72.07;;;68.45;;
33505;SDS011;19843;51.040;13.782;2023-01-09T11:59:11;67.35;;;63.75;;
33505;SDS011;19843;51.040;13.782;2023-01-09T12:04:39;67.30;;;63.90;;
33505;SDS011;19843;51.040;13.782;2023-01-09T12:10:08;63.47;;;60.15;;
33505;SDS011;19843;51.040;13.782;2023-01-09T12:12:50;57.55;;;54.60;;
33505;SDS011;19843;51.040;13.782;2023-01-09T12:18:18;63.22;;;60.03;;
33505;SDS011;19843;51.040;13.782;2023-01-09T12:20:58;54.03;;;51.35;;
33505;SDS011;19843;51.040;13.782;2023-01-09T12:23:35;51.80;;;49.25;;
33505;SDS011;19843;51.040;13.782;2023-01-09T12:26:15;45.17;;;42.95;;
33505;SDS011;19843;51.040;13.782;2023-01-09T12:28:50;51.53;;;48.72;;
33505;SDS011;19843;51.040;13.782;2023-01-09T12:31:35;55.90;;;52.97;;
33505;SDS011;19843;51.040;13.782;2023-01-09T12:34:19;46.72;;;44.42;;
33505;SDS011;19843;51.040;13.782;2023-01-09T12:37:01;48.13;;;45.65;;
33505;SDS011;19843;51.040;13.782;2023-01-09T12:39:41;50.42;;;47.80;;
33505;SDS011;19843;51.040;13.782;2023-01-09T12:42:22;55.10;;;52.17;;
33505;SDS011;19843;51.040;13.782;2023-01-09T12:45:00;50.33;;;47.70;;
33505;SDS011;19843;51.040;13.782;2023-01-09T12:47:40;49.08;;;46.60;;
33505;SDS011;19843;51.040;13.782;2023-01-09T12:50:19;50.22;;;47.72;;
33505;SDS011;19843;51.040;13.782;2023-01-09T12:53:01;56.25;;;53.42;;
33505;SDS011;19843;51.040;13.782;2023-01-09T12:55:34;53.75;;;51.08;;
33505;SDS011;19843;51.040;13.782;2023-01-09T12:58:07;48.60;;;45.97;;
33505;SDS011;19843;51.040;13.782;2023-01-09T13:00:46;55.63;;;52.83;;
33505;SDS011;19843;51.040;13.782;2023-01-09T13:03:17;45.50;;;43.25;;
33505;SDS011;19843;51.040;13.782;2023-01-09T13:05:50;49.60;;;46.83;;
33505;SDS011;19843;51.040;13.782;2023-01-09T13:08:20;50.22;;;47.75;;
33505;SDS011;19843;51.040;13.782;2023-01-09T13:10:52;48.65;;;45.95;;
33505;SDS011;19843;51.040;13.782;2023-01-09T13:13:34;43.30;;;41.17;;
33505;SDS011;19843;51.040;13.782;2023-01-09T13:16:09;41.65;;;39.63;;
33505;SDS011;19843;51.040;13.782;2023-01-09T13:18:41;42.38;;;40.08;;
33505;SDS011;19843;51.040;13.782;2023-01-09T13:21:13;46.70;;;44.30;;
33505;SDS011;19843;51.040;13.782;2023-01-09T13:23:43;46.10;;;43.22;;
33505;SDS011;19843;51.040;13.782;2023-01-09T13:26:16;42.50;;;40.40;;
33505;SDS011;19843;51.040;13.782;2023-01-09T13:28:49;43.30;;;41.10;;
33505;SDS011;19843;51.040;13.782;2023-01-09T13:31:27;46.60;;;44.28;;
33505;SDS011;19843;51.040;13.782;2023-01-09T13:34:08;41.90;;;39.80;;
33505;SDS011;19843;51.040;13.782;2023-01-09T13:36:48;41.42;;;39.33;;
33505;SDS011;19843;51.040;13.782;2023-01-09T13:39:18;46.35;;;43.63;;
33505;SDS011;19843;51.040;13.782;2023-01-09T13:41:50;43.03;;;40.92;;
33505;SDS011;19843;51.040;13.782;2023-01-09T13:44:39;39.20;;;37.17;;
33505;SDS011;19843;51.040;13.782;2023-01-09T13:47:13;43.33;;;41.15;;
33505;SDS011;19843;51.040;13.782;2023-01-09T13:49:56;39.88;;;37.85;;
33505;SDS011;19843;51.040;13.782;2023-01-09T13:52:27;40.78;;;38.67;;
33505;SDS011;19843;51.040;13.782;2023-01-09T13:55:00;41.50;;;39.40;;
33505;SDS011;19843;51.040;13.782;2023-01-09T14:00:51;39.50;;;37.53;;
33505;SDS011;19843;51.040;13.782;2023-01-09T14:03:22;39.72;;;37.65;;
33505;SDS011;19843;51.040;13.782;2023-01-09T14:06:02;44.00;;;41.53;;
33505;SDS011;19843;51.040;13.782;2023-01-09T14:08:44;43.05;;;40.85;;
33505;SDS011;19843;51.040;13.782;2023-01-09T14:11:20;41.97;;;39.92;;
33505;SDS011;19843;51.040;13.782;2023-01-09T14:16:45;42.50;;;40.30;;
33505;SDS011;19843;51.040;13.782;2023-01-09T14:19:19;41.13;;;39.08;;
33505;SDS011;19843;51.040;13.782;2023-01-09T14:21:55;43.83;;;41.67;;
33505;SDS011;19843;51.040;13.782;2023-01-09T14:24:25;43.25;;;41.10;;
33505;SDS011;19843;51.040;13.782;2023-01-09T14:26:55;43.92;;;41.72;;
33505;SDS011;19843;51.040;13.782;2023-01-09T14:29:40;41.10;;;39.10;;
33505;SDS011;19843;51.040;13.782;2023-01-09T14:35:15;45.38;;;43.15;;
33505;SDS011;19843;51.040;13.782;2023-01-09T14:38:00;40.00;;;37.80;;
33505;SDS011;19843;51.040;13.782;2023-01-09T14:40:31;41.22;;;39.05;;
33505;SDS011;19843;51.040;13.782;2023-01-09T14:43:03;42.72;;;40.58;;
33505;SDS011;19843;51.040;13.782;2023-01-09T14:45:38;40.38;;;38.35;;
33505;SDS011;19843;51.040;13.782;2023-01-09T14:48:15;40.25;;;38.25;;
33505;SDS011;19843;51.040;13.782;2023-01-09T14:50:43;40.03;;;38.03;;